createdAt,value
2018-09-17T00:02:07.659Z,5.35
2018-09-17T00:04:34.926Z,5.65
2018-09-17T00:07:01.842Z,5.85
2018-09-17T00:09:28.745Z,5.00
2018-09-17T00:11:55.674Z,5.50
2018-09-17T00:14:22.559Z,5.40
2018-09-17T00:16:49.530Z,4.85
2018-09-17T00:19:16.450Z,5.08
2018-09-17T00:21:43.362Z,5.70
2018-09-17T00:24:10.240Z,5.05
2018-09-17T00:26:37.117Z,4.92
2018-09-17T00:29:04.052Z,5.45
2018-09-17T00:31:31.000Z,5.35
2018-09-17T00:33:57.932Z,4.97
2018-09-17T00:36:24.884Z,4.90
2018-09-17T00:38:51.774Z,5.60
2018-09-17T00:41:18.685Z,5.03
2018-09-17T00:43:45.631Z,4.97
2018-09-17T00:46:12.509Z,5.28
2018-09-17T00:48:39.510Z,5.37
2018-09-17T00:51:06.494Z,4.70
2018-09-17T00:53:33.502Z,5.10
2018-09-17T00:56:00.654Z,4.92
2018-09-17T00:58:27.514Z,5.40
2018-09-17T01:00:54.445Z,5.35
2018-09-17T01:03:21.304Z,5.45
2018-09-17T01:05:48.244Z,5.37
2018-09-17T01:08:15.139Z,5.47
2018-09-17T01:10:42.161Z,5.80
2018-09-17T01:13:09.026Z,5.42
2018-09-17T01:15:35.903Z,5.92
2018-09-17T01:18:02.806Z,5.85
2018-09-17T01:20:29.762Z,5.50
2018-09-17T01:22:56.830Z,5.33
2018-09-17T01:25:23.718Z,5.60
2018-09-17T01:27:50.889Z,8.30
2018-09-17T01:30:17.802Z,6.25
2018-09-17T01:32:44.712Z,6.65
2018-09-17T01:35:11.604Z,5.90
2018-09-17T01:37:38.648Z,5.83
2018-09-17T01:40:05.584Z,5.30
2018-09-17T01:42:32.503Z,5.60
2018-09-17T01:44:59.390Z,5.85
2018-09-17T01:47:26.280Z,6.03
2018-09-17T01:49:53.198Z,6.17
2018-09-17T01:52:20.065Z,5.85
2018-09-17T01:54:46.957Z,5.67
2018-09-17T01:57:13.849Z,6.00
2018-09-17T01:59:40.779Z,5.85
2018-09-17T02:02:08.374Z,6.23
2018-09-17T02:04:35.308Z,5.92
2018-09-17T02:07:02.256Z,5.87
2018-09-17T02:09:31.264Z,6.20
2018-09-17T02:11:58.196Z,5.90
2018-09-17T02:14:25.072Z,5.37
2018-09-17T02:16:52.020Z,5.40
2018-09-17T02:19:18.930Z,5.67
2018-09-17T02:21:45.884Z,5.40
2018-09-17T02:24:12.787Z,5.60
2018-09-17T02:26:40.454Z,5.90
2018-09-17T02:29:07.359Z,5.25
2018-09-17T02:31:34.245Z,5.53
2018-09-17T02:34:01.174Z,5.47
2018-09-17T02:36:28.073Z,5.33
2018-09-17T02:38:54.930Z,5.10
2018-09-17T02:41:21.864Z,4.90
2018-09-17T02:43:48.810Z,5.93
2018-09-17T02:46:15.760Z,5.30
2018-09-17T02:48:43.538Z,5.30
2018-09-17T02:51:10.418Z,5.03
2018-09-17T02:53:37.316Z,5.20
2018-09-17T02:56:05.304Z,8.13
2018-09-17T02:58:32.176Z,5.57
2018-09-17T03:00:59.081Z,5.43
2018-09-17T03:03:25.986Z,5.50
2018-09-17T03:05:54.147Z,5.85
2018-09-17T03:08:21.040Z,5.07
2018-09-17T03:10:47.941Z,5.37
2018-09-17T03:13:14.842Z,5.27
2018-09-17T03:15:49.998Z,5.30
2018-09-17T03:18:27.593Z,5.20
2018-09-17T03:20:54.470Z,5.00
2018-09-17T03:23:21.338Z,5.63
2018-09-17T03:25:48.222Z,5.13
2018-09-17T03:28:15.100Z,5.50
2018-09-17T03:30:41.966Z,5.83
2018-09-17T03:33:08.867Z,5.62
2018-09-17T03:35:35.767Z,5.60
2018-09-17T03:38:19.068Z,5.97
2018-09-17T03:40:46.024Z,5.50
2018-09-17T03:43:12.915Z,5.37
2018-09-17T03:45:39.908Z,5.07
2018-09-17T03:48:06.798Z,5.47
2018-09-17T03:50:33.746Z,5.80
2018-09-17T03:53:00.627Z,5.72
2018-09-17T03:55:27.498Z,5.67
2018-09-17T03:57:54.410Z,5.77
2018-09-17T04:00:21.298Z,5.27
2018-09-17T04:02:48.191Z,5.37
2018-09-17T04:05:15.097Z,5.50
2018-09-17T04:07:42.071Z,5.35
2018-09-17T04:10:08.961Z,5.50
2018-09-17T04:12:35.858Z,5.70
2018-09-17T04:15:02.764Z,5.70
2018-09-17T04:17:29.664Z,5.83
2018-09-17T04:19:56.572Z,5.77
2018-09-17T04:22:23.438Z,5.25
2018-09-17T04:24:50.352Z,5.87
2018-09-17T04:27:17.236Z,6.27
2018-09-17T04:29:44.122Z,5.70
2018-09-17T04:32:11.049Z,5.60
2018-09-17T04:34:37.951Z,6.27
2018-09-17T04:37:04.847Z,5.87
2018-09-17T04:39:31.808Z,7.05
2018-09-17T04:41:58.720Z,5.60
2018-09-17T04:44:25.610Z,6.33
2018-09-17T04:46:52.494Z,6.83
2018-09-17T04:49:19.405Z,6.50
2018-09-17T04:51:46.340Z,6.30
2018-09-17T04:54:13.206Z,6.37
2018-09-17T04:56:40.122Z,6.70
2018-09-17T04:59:06.994Z,6.30
2018-09-17T05:01:33.850Z,6.53
2018-09-17T05:04:00.727Z,6.73
2018-09-17T05:06:27.626Z,6.50
2018-09-17T05:08:54.498Z,6.90
2018-09-17T05:11:21.461Z,6.50
2018-09-17T05:13:48.343Z,6.13
2018-09-17T05:16:15.247Z,7.00
2018-09-17T05:18:42.148Z,7.13
2018-09-17T05:21:09.014Z,6.80
2018-09-17T05:23:35.927Z,6.47
2018-09-17T05:26:02.845Z,6.83
2018-09-17T05:28:29.714Z,7.00
2018-09-17T05:30:56.566Z,7.20
2018-09-17T05:33:23.509Z,7.30
2018-09-17T05:35:50.410Z,6.93
2018-09-17T05:38:17.315Z,7.07
2018-09-17T05:40:44.224Z,7.03
2018-09-17T05:43:11.088Z,6.70
2018-09-17T05:45:38.051Z,6.90
2018-09-17T05:48:04.919Z,6.90
2018-09-17T05:50:31.887Z,7.23
2018-09-17T05:52:58.774Z,6.37
2018-09-17T05:55:25.759Z,6.80
2018-09-17T05:57:52.707Z,6.77
2018-09-17T06:00:19.670Z,7.07
2018-09-17T06:02:46.599Z,7.80
2018-09-17T06:05:13.557Z,9.20
2018-09-17T06:07:40.585Z,8.03
2018-09-17T06:10:14.471Z,7.70
2018-09-17T06:12:42.159Z,7.10
2018-09-17T06:15:09.103Z,7.30
2018-09-17T06:17:36.033Z,6.72
2018-09-17T06:20:03.054Z,6.90
2018-09-17T06:22:30.028Z,7.22
2018-09-17T06:24:56.933Z,6.63
2018-09-17T06:27:23.864Z,6.55
2018-09-17T06:29:50.867Z,7.53
2018-09-17T06:32:17.795Z,6.73
2018-09-17T06:34:44.835Z,6.33
2018-09-17T06:37:11.761Z,6.72
2018-09-17T06:39:38.757Z,6.37
2018-09-17T06:42:05.761Z,6.10
2018-09-17T06:44:32.705Z,6.10
2018-09-17T06:46:59.658Z,6.80
2018-09-17T06:49:26.777Z,6.60
2018-09-17T06:51:53.713Z,6.20
2018-09-17T06:54:20.749Z,6.50
2018-09-17T06:56:47.802Z,5.87
2018-09-17T06:59:15.063Z,6.17
2018-09-17T07:01:42.036Z,5.62
2018-09-17T07:04:09.009Z,6.25
2018-09-17T07:06:36.013Z,5.80
2018-09-17T07:09:04.045Z,5.80
2018-09-17T07:11:30.983Z,6.17
2018-09-17T07:13:58.071Z,6.45
2018-09-17T07:16:25.046Z,5.97
2018-09-17T07:18:52.022Z,5.90
2018-09-17T07:21:19.043Z,5.78
2018-09-17T07:23:46.031Z,5.17
2018-09-17T07:26:13.051Z,5.42
2018-09-17T07:28:40.099Z,5.92
2018-09-17T07:31:07.031Z,5.10
2018-09-17T07:33:34.015Z,5.67
2018-09-17T07:36:01.004Z,5.00
2018-09-17T07:38:28.045Z,5.83
2018-09-17T07:40:55.255Z,4.97
2018-09-17T07:43:22.392Z,5.05
2018-09-17T07:45:49.515Z,5.08
2018-09-17T07:48:16.571Z,4.85
2018-09-17T07:50:43.534Z,5.05
2018-09-17T07:53:10.622Z,4.60
2018-09-17T07:55:37.619Z,4.80
2018-09-17T07:58:04.785Z,4.72
2018-09-17T08:00:31.991Z,4.83
2018-09-17T08:02:59.013Z,5.50
2018-09-17T08:05:26.028Z,4.47
2018-09-17T08:07:52.991Z,4.80
2018-09-17T08:10:23.969Z,4.62
2018-09-17T08:12:51.349Z,4.05
2018-09-17T08:15:18.515Z,4.50
2018-09-17T08:17:45.511Z,4.35
2018-09-17T08:20:12.669Z,4.90
2018-09-17T08:22:39.699Z,4.15
2018-09-17T08:25:06.883Z,4.10
2018-09-17T08:27:34.042Z,3.83
2018-09-17T08:30:00.963Z,4.05
2018-09-17T08:32:27.997Z,3.87
2018-09-17T08:34:54.919Z,3.98
2018-09-17T08:37:21.860Z,3.95
2018-09-17T08:39:48.847Z,3.37
2018-09-17T08:42:16.251Z,3.65
2018-09-17T08:44:43.245Z,3.70
2018-09-17T08:47:10.215Z,3.52
2018-09-17T08:49:37.255Z,3.40
2018-09-17T08:52:04.281Z,4.10
2018-09-17T08:54:34.722Z,4.87
2018-09-17T08:57:06.356Z,5.75
2018-09-17T08:59:38.999Z,4.40
2018-09-17T09:02:12.179Z,4.33
2018-09-17T09:05:48.665Z,4.50
2018-09-17T09:08:15.636Z,3.85
2018-09-17T09:10:47.447Z,3.52
2018-09-17T09:13:23.833Z,3.85
2018-09-17T09:15:51.063Z,4.42
2018-09-17T09:18:18.038Z,4.85
2018-09-17T09:20:45.080Z,5.20
2018-09-17T09:23:12.037Z,4.58
2018-09-17T09:25:39.149Z,3.72
2018-09-17T09:28:06.178Z,3.37
2018-09-17T09:30:33.956Z,3.55
2018-09-17T09:33:00.959Z,3.50
2018-09-17T09:35:28.317Z,4.03
2018-09-17T09:37:55.829Z,4.05
2018-09-17T09:40:22.815Z,3.85
2018-09-17T09:42:49.900Z,3.67
2018-09-17T09:45:16.981Z,5.53
2018-09-17T09:47:44.734Z,6.60
2018-09-17T09:50:14.670Z,4.30
2018-09-17T09:52:42.148Z,4.35
2018-09-17T09:55:09.193Z,3.92
2018-09-17T09:57:36.185Z,2.50
2018-09-17T10:00:03.797Z,2.80
2018-09-17T10:03:06.540Z,3.05
2018-09-17T10:05:33.659Z,3.05
2018-09-17T10:08:00.606Z,3.50
2018-09-17T10:10:34.567Z,3.00
2018-09-17T10:13:07.508Z,3.55
2018-09-17T10:15:34.540Z,3.20
2018-09-17T10:18:07.238Z,3.40
2018-09-17T10:20:34.232Z,3.30
2018-09-17T10:23:01.661Z,3.60
2018-09-17T10:25:28.886Z,3.70
2018-09-17T10:27:55.823Z,2.92
2018-09-17T10:30:25.822Z,3.35
2018-09-17T10:32:53.449Z,3.08
2018-09-17T10:35:20.435Z,5.55
2018-09-17T10:37:47.440Z,4.50
2018-09-17T10:40:14.445Z,3.25
2018-09-17T10:42:41.436Z,3.72
2018-09-17T10:45:08.419Z,3.10
2018-09-17T10:47:35.358Z,3.67
2018-09-17T10:50:02.401Z,3.90
2018-09-17T10:52:29.339Z,3.50
2018-09-17T10:54:56.280Z,3.40
2018-09-17T10:57:23.245Z,2.90
2018-09-17T10:59:50.190Z,2.80
2018-09-17T11:02:17.160Z,3.12
2018-09-17T11:04:44.088Z,3.08
2018-09-17T11:07:11.043Z,2.65
2018-09-17T11:09:38.032Z,2.70
2018-09-17T11:12:04.965Z,2.80
2018-09-17T11:14:31.934Z,2.55
2018-09-17T11:16:58.873Z,2.40
2018-09-17T11:19:25.855Z,2.00
2018-09-17T11:21:52.784Z,2.35
2018-09-17T11:24:19.719Z,2.17
2018-09-17T11:26:46.668Z,2.15
2018-09-17T11:29:13.708Z,2.40
2018-09-17T11:31:40.664Z,2.47
2018-09-17T11:34:07.580Z,2.58
2018-09-17T11:36:34.620Z,2.60
2018-09-17T11:39:01.582Z,2.60
2018-09-17T11:41:28.498Z,2.30
2018-09-17T11:43:55.484Z,1.92
2018-09-17T11:46:22.483Z,2.08
2018-09-17T11:48:49.378Z,2.15
2018-09-17T11:51:16.282Z,2.08
2018-09-17T11:53:43.273Z,2.40
2018-09-17T11:56:20.120Z,2.33
2018-09-17T11:58:47.064Z,2.70
2018-09-17T12:01:19.894Z,3.05
2018-09-17T12:03:52.560Z,2.90
2018-09-17T12:06:24.105Z,2.42
2018-09-17T12:08:51.096Z,2.10
2018-09-17T12:11:18.095Z,2.20
2018-09-17T12:13:45.066Z,2.05
2018-09-17T12:16:12.114Z,2.00
2018-09-17T12:18:39.145Z,2.00
2018-09-17T12:21:06.104Z,2.17
2018-09-17T12:23:33.026Z,2.10
2018-09-17T12:25:59.995Z,2.27
2018-09-17T12:28:26.952Z,1.82
2018-09-17T12:30:54.661Z,1.95
2018-09-17T12:33:21.572Z,2.10
2018-09-17T12:35:48.490Z,1.82
2018-09-17T12:38:15.430Z,2.10
2018-09-17T12:40:42.405Z,2.10
2018-09-17T12:43:09.376Z,2.42
2018-09-17T12:45:36.951Z,2.12
2018-09-17T12:48:03.992Z,2.20
2018-09-17T12:50:31.692Z,2.02
2018-09-17T12:52:58.720Z,2.00
2018-09-17T12:55:25.673Z,2.15
2018-09-17T12:57:53.351Z,1.85
2018-09-17T13:00:20.301Z,1.77
2018-09-17T13:02:47.218Z,2.67
2018-09-17T13:05:14.416Z,2.20
2018-09-17T13:07:41.469Z,2.50
2018-09-17T13:10:08.491Z,2.30
2018-09-17T13:12:35.439Z,2.25
2018-09-17T13:15:02.377Z,1.90
2018-09-17T13:17:29.391Z,2.27
2018-09-17T13:19:56.399Z,2.37
2018-09-17T13:22:23.363Z,2.40
2018-09-17T13:24:50.324Z,2.02
2018-09-17T13:27:17.772Z,2.00
2018-09-17T13:29:44.752Z,1.82
2018-09-17T13:32:11.698Z,2.25
2018-09-17T13:34:39.227Z,2.65
2018-09-17T13:37:06.203Z,2.40
2018-09-17T13:39:33.166Z,2.22
2018-09-17T13:42:00.199Z,2.58
2018-09-17T13:44:27.273Z,2.17
2018-09-17T13:46:54.131Z,2.47
2018-09-17T13:49:21.108Z,2.30
2018-09-17T13:51:48.050Z,2.50
2018-09-17T13:54:15.035Z,2.58
2018-09-17T13:56:41.922Z,2.40
2018-09-17T13:59:08.832Z,2.08
2018-09-17T14:01:35.843Z,2.45
2018-09-17T14:04:02.831Z,2.20
2018-09-17T14:06:29.788Z,2.40
2018-09-17T14:08:57.825Z,2.50
2018-09-17T14:11:25.727Z,2.58
2018-09-17T14:13:53.404Z,3.35
2018-09-17T14:16:26.283Z,3.47
2018-09-17T14:18:53.211Z,3.12
2018-09-17T14:21:20.317Z,2.77
2018-09-17T14:23:47.348Z,2.40
2018-09-17T14:26:14.421Z,2.47
2018-09-17T14:28:41.295Z,2.80
2018-09-17T14:31:08.251Z,3.83
2018-09-17T14:33:39.363Z,2.87
2018-09-17T14:36:06.340Z,3.35
2018-09-17T14:38:33.394Z,2.70
2018-09-17T14:41:00.422Z,2.60
2018-09-17T14:43:27.472Z,2.80
2018-09-17T14:45:54.382Z,2.30
2018-09-17T14:48:21.357Z,2.05
2018-09-17T14:50:48.946Z,2.60
2018-09-17T14:53:16.632Z,2.27
2018-09-17T14:55:43.541Z,2.35
2018-09-17T14:58:11.087Z,2.50
2018-09-17T15:00:38.136Z,2.67
2018-09-17T15:03:05.350Z,2.90
2018-09-17T15:05:32.367Z,3.27
2018-09-17T15:08:00.440Z,3.35
2018-09-17T15:10:27.349Z,2.80
2018-09-17T15:12:54.233Z,2.98
2018-09-17T15:15:21.205Z,2.65
2018-09-17T15:17:48.128Z,2.35
2018-09-17T15:20:15.241Z,2.37
2018-09-17T15:22:42.145Z,2.50
2018-09-17T15:25:09.250Z,2.47
2018-09-17T15:27:36.263Z,2.40
2018-09-17T15:30:03.377Z,2.65
2018-09-17T15:32:30.382Z,2.37
2018-09-17T15:34:57.557Z,2.47
2018-09-17T15:37:25.245Z,2.80
2018-09-17T15:39:54.298Z,2.98
2018-09-17T15:42:22.817Z,2.70
2018-09-17T15:44:49.879Z,2.70
2018-09-17T15:47:16.889Z,3.55
2018-09-17T15:49:44.609Z,3.25
2018-09-17T15:52:11.719Z,3.00
2018-09-17T15:54:38.671Z,2.62
2018-09-17T15:57:05.729Z,3.05
2018-09-17T15:59:33.789Z,2.05
2018-09-17T16:02:01.415Z,3.30
2018-09-17T16:04:28.394Z,2.35
2018-09-17T16:06:55.267Z,2.50
2018-09-17T16:09:22.405Z,2.42
2018-09-17T16:11:49.301Z,2.72
2018-09-17T16:14:16.264Z,2.92
2018-09-17T16:16:43.179Z,3.30
2018-09-17T16:19:10.111Z,3.72
2018-09-17T16:21:37.077Z,4.37
2018-09-17T16:24:04.063Z,5.17
2018-09-17T16:26:30.983Z,4.92
2018-09-17T16:28:57.939Z,4.35
2018-09-17T16:31:24.875Z,6.15
2018-09-17T16:33:51.918Z,7.75
2018-09-17T16:36:19.117Z,7.45
2018-09-17T16:38:46.114Z,9.88
2018-09-17T16:41:13.043Z,9.33
2018-09-17T16:43:40.110Z,8.78
2018-09-17T16:46:07.061Z,8.75
2018-09-17T16:48:33.953Z,6.22
2018-09-17T16:51:00.914Z,6.05
2018-09-17T16:53:27.923Z,6.70
2018-09-17T16:55:54.731Z,5.67
2018-09-17T16:58:21.632Z,5.10
2018-09-17T17:00:48.849Z,5.20
2018-09-17T17:03:16.149Z,4.95
2018-09-17T17:05:43.115Z,4.35
2018-09-17T17:08:10.061Z,4.97
2018-09-17T17:10:36.967Z,10.45
2018-09-17T17:13:03.857Z,7.90
2018-09-17T17:15:30.834Z,5.50
2018-09-17T17:17:57.718Z,4.83
2018-09-17T17:20:24.638Z,4.85
2018-09-17T17:22:51.604Z,4.83
2018-09-17T17:25:18.489Z,4.20
2018-09-17T17:27:45.443Z,4.22
2018-09-17T17:30:12.344Z,4.55
2018-09-17T17:32:39.444Z,11.73
2018-09-17T17:35:06.598Z,6.70
2018-09-17T17:37:34.509Z,4.22
2018-09-17T17:40:01.513Z,5.05
2018-09-17T17:42:28.265Z,4.75
2018-09-17T17:44:55.199Z,4.80
2018-09-17T17:47:22.108Z,4.95
2018-09-17T17:49:49.012Z,4.90
2018-09-17T17:52:15.988Z,4.97
2018-09-17T17:54:42.913Z,9.93
2018-09-17T17:57:09.768Z,14.40
2018-09-17T17:59:36.660Z,8.00
2018-09-17T18:02:03.584Z,5.85
2018-09-17T18:04:30.715Z,5.22
2018-09-17T18:06:57.661Z,5.20
2018-09-17T18:09:24.655Z,13.75
2018-09-17T18:11:51.526Z,12.53
2018-09-17T18:14:18.564Z,6.62
2018-09-17T18:16:45.565Z,5.65
2018-09-17T18:19:12.496Z,4.90
2018-09-17T18:21:39.552Z,5.53
2018-09-17T18:24:06.486Z,5.67
2018-09-17T18:26:33.402Z,5.25
2018-09-17T18:29:00.364Z,5.65
2018-09-17T18:31:27.312Z,5.92
2018-09-17T18:33:54.242Z,5.50
2018-09-17T18:36:21.533Z,5.90
2018-09-17T18:38:48.475Z,6.37
2018-09-17T18:41:15.440Z,6.20
2018-09-17T18:43:42.383Z,5.70
2018-09-17T18:46:09.768Z,6.35
2018-09-17T18:48:36.814Z,6.00
2018-09-17T18:53:59.979Z,5.90
2018-09-17T18:56:28.463Z,5.60
2018-09-17T19:02:03.092Z,5.80
2018-09-17T19:04:31.412Z,5.92
2018-09-17T19:06:58.365Z,6.47
2018-09-17T19:09:31.208Z,5.70
2018-09-17T19:11:58.264Z,5.97
2018-09-17T19:14:30.992Z,6.00
2018-09-17T19:16:57.941Z,6.72
2018-09-17T19:19:25.288Z,7.40
2018-09-17T19:21:58.150Z,6.58
2018-09-17T19:24:24.968Z,6.87
2018-09-17T19:26:51.898Z,7.25
2018-09-17T19:29:20.257Z,7.85
2018-09-17T19:31:47.460Z,7.83
2018-09-17T19:34:14.467Z,8.40
2018-09-17T19:36:41.336Z,9.05
2018-09-17T19:39:14.103Z,8.45
2018-09-17T19:41:41.661Z,8.50
2018-09-17T19:44:08.598Z,9.43
2018-09-17T19:46:35.518Z,8.85
2018-09-17T19:49:02.504Z,8.25
2018-09-17T19:51:35.181Z,8.53
2018-09-17T19:54:02.143Z,8.63
2018-09-17T19:56:29.172Z,8.63
2018-09-17T19:59:02.900Z,9.35
2018-09-17T20:01:29.940Z,9.20
2018-09-17T20:04:01.457Z,10.32
2018-09-17T20:06:28.482Z,10.35
2018-09-17T20:08:55.447Z,9.48
2018-09-17T20:11:22.418Z,9.93
2018-09-17T20:13:49.403Z,9.28
2018-09-17T20:16:16.356Z,9.70
2018-09-17T20:18:43.346Z,9.83
2018-09-17T20:21:10.256Z,9.68
2018-09-17T20:23:37.196Z,9.68
2018-09-17T20:26:04.120Z,10.13
2018-09-17T20:28:31.018Z,9.08
2018-09-17T20:30:57.998Z,9.80
2018-09-17T20:33:27.904Z,9.28
2018-09-17T20:35:54.920Z,9.53
2018-09-17T20:38:21.891Z,9.28
2018-09-17T20:40:49.160Z,9.50
2018-09-17T20:43:16.087Z,9.90
2018-09-17T20:45:43.022Z,9.25
2018-09-17T20:48:09.930Z,9.20
2018-09-17T20:50:36.818Z,9.78
2018-09-17T20:53:03.726Z,9.03
2018-09-17T20:55:30.674Z,9.53
2018-09-17T20:57:57.620Z,9.48
2018-09-17T21:00:24.520Z,9.43
2018-09-17T21:02:51.384Z,9.40
2018-09-17T21:05:18.270Z,8.73
2018-09-17T21:07:45.216Z,9.28
2018-09-17T21:10:12.194Z,9.63
2018-09-17T21:12:39.198Z,9.85
2018-09-17T21:15:06.076Z,9.75
2018-09-17T21:17:32.973Z,9.85
2018-09-17T21:19:59.926Z,9.68
2018-09-17T21:22:27.122Z,9.40
2018-09-17T21:24:54.173Z,11.15
2018-09-17T21:27:21.055Z,10.30
2018-09-17T21:29:47.954Z,9.75
2018-09-17T21:32:14.946Z,9.80
2018-09-17T21:34:41.838Z,10.20
2018-09-17T21:37:08.983Z,9.88
2018-09-17T21:39:35.950Z,10.15
2018-09-17T21:42:02.842Z,10.20
2018-09-17T21:44:29.792Z,10.43
2018-09-17T21:46:57.333Z,10.88
2018-09-17T21:49:24.231Z,11.43
2018-09-17T21:51:51.108Z,9.65
2018-09-17T21:54:18.126Z,10.90
2018-09-17T21:56:45.014Z,10.70
2018-09-17T21:59:11.932Z,10.13
2018-09-17T22:01:38.852Z,10.45
2018-09-17T22:04:05.770Z,10.13
2018-09-17T22:06:33.317Z,10.15
2018-09-17T22:09:00.294Z,9.53
2018-09-17T22:11:27.163Z,9.65
2018-09-17T22:13:54.156Z,9.20
2018-09-17T22:16:21.070Z,8.75
2018-09-17T22:18:47.980Z,9.05
2018-09-17T22:21:14.872Z,8.68
2018-09-17T22:23:41.818Z,9.15
2018-09-17T22:26:08.770Z,8.60
2018-09-17T22:28:35.678Z,9.00
2018-09-17T22:31:02.658Z,8.70
2018-09-17T22:33:29.566Z,8.95
2018-09-17T22:35:56.526Z,9.18
2018-09-17T22:38:23.461Z,8.48
2018-09-17T22:40:50.385Z,9.00
2018-09-17T22:43:17.323Z,8.60
2018-09-17T22:45:44.290Z,8.53
2018-09-17T22:48:11.170Z,7.83
2018-09-17T22:50:38.090Z,8.08
2018-09-17T22:53:05.026Z,8.23
2018-09-17T22:55:31.894Z,7.75
2018-09-17T22:57:58.764Z,8.58
2018-09-17T23:00:25.669Z,7.62
2018-09-17T23:05:27.105Z,7.42
2018-09-17T23:07:54.024Z,7.08
2018-09-17T23:10:20.952Z,7.70
2018-09-17T23:12:47.892Z,6.83
2018-09-17T23:15:14.832Z,6.62
2018-09-17T23:17:41.762Z,7.22
2018-09-17T23:20:08.622Z,6.85
2018-09-17T23:22:35.546Z,6.80
2018-09-17T23:25:02.515Z,6.60
2018-09-17T23:27:29.464Z,6.55
2018-09-17T23:29:56.392Z,6.53
2018-09-17T23:32:23.351Z,6.45
2018-09-17T23:34:50.278Z,7.03
2018-09-17T23:37:17.430Z,6.42
2018-09-17T23:39:44.366Z,6.87
2018-09-17T23:42:11.307Z,6.30
2018-09-17T23:44:38.235Z,6.08
2018-09-17T23:47:05.622Z,6.45
2018-09-17T23:49:32.526Z,5.90
2018-09-17T23:51:59.466Z,6.00
2018-09-17T23:54:26.425Z,6.20
2018-09-17T23:56:53.338Z,5.92
2018-09-17T23:59:20.231Z,5.83
